x

Susquehanna, Md (44057) Weather Station

1:50pm - Wed 28th Sep 2016 All times are EDT. -4 hours from GMT.

  • Wind
    7mph, 9mph gusts
  • Air Temp 67°f
  • Sea Pressure 1017.6mb
  • Susquehanna, Md
  • Susquehanna, Md

More Historic Weather Station data

Upgrade to MSW Pro to gain access to the past 30 days of data for over 8000 Wavebouys and Weather Stations around the globe.

Join Pro

Comparision Forecast

View Surf forecast
   
Wed 09/28 1:50pm 7 9 mph 1017.6mb - 67f
1:40pm 4 9 mph 1017.8mb - 67f
1:30pm 9 11 mph 1017.6mb - 67f
1:20pm 4 11 mph 1018.2mb - 66f
1:10pm 4 9 mph 1017.9mb - 66f
1:00pm 7 9 mph 1017.8mb 76f 66f
12:50pm 4 9 mph 1018mb - 66f
12:40pm 4 9 mph 1017.9mb - 66f
12:30pm 7 9 mph 1017.6mb - 66f
12:20pm 9 11 mph 1017.7mb - 66f
12:10pm 9 11 mph 1017.7mb - 66f
12:00pm 9 11 mph 1017.6mb 76f 65f
11:50am 9 11 mph 1017.5mb - 65f
11:40am 9 13 mph 1017.3mb - 65f
11:30am 9 13 mph 1017.5mb - 65f
11:20am 11 13 mph 1017.5mb - 65f
11:10am 11 13 mph 1017.7mb - 65f
11:00am 11 13 mph 1017.7mb 76f 64f
10:50am 9 13 mph 1017.5mb - 63f
10:40am 7 11 mph 1017.2mb - 63f
10:30am 7 9 mph 1017.3mb - 63f
10:20am 7 11 mph 1017.3mb - 63f
10:10am 9 11 mph 1017.1mb - 63f
10:00am 9 13 mph 1017.4mb 76f 63f
9:50am 9 11 mph 1017.4mb - 63f
9:40am 9 11 mph 1017.5mb - 63f
9:30am 7 11 mph 1017.4mb - 63f
9:20am 7 9 mph 1017.1mb - 63f
9:10am 7 13 mph 1017mb - 63f
9:00am 7 9 mph 1016.9mb 76f 63f
8:50am 7 11 mph 1016.7mb - 63f
8:40am 7 9 mph 1016.7mb - 63f
8:30am 7 11 mph 1016.6mb - 63f
8:20am 4 7 mph 1016.6mb - 63f
8:10am 4 7 mph 1016.4mb - 63f
8:00am 4 7 mph 1016.3mb 76f 63f
7:50am 4 7 mph 1016.2mb - 63f
7:40am 4 7 mph 1016.2mb - 64f
7:30am 4 7 mph 1016.2mb - 63f
7:20am 4 7 mph 1016.1mb - 63f
7:10am 4 7 mph 1015.8mb - 63f
7:00am 4 7 mph 1015.8mb 76f 62f
6:50am 4 7 mph 1015.8mb - 62f
6:40am 7
mph
1015.8mb - 63f
6:30am 7 9 mph 1016mb - 63f
6:20am 9 11 mph 1015.6mb - 63f
6:10am 9 11 mph 1015.6mb - 63f
6:00am 9 11 mph 1015.7mb 76f 63f
5:50am 9
mph
1015.7mb - 63f
5:40am 9 11 mph 1015.6mb - 62f
5:30am 7 9 mph 1015.6mb - 62f
5:20am 4 7 mph 1015.7mb - 62f
5:10am 4 7 mph 1015.8mb - 62f
5:00am 4 7 mph 1015.8mb 76f 62f
4:50am 4 7 mph 1015.8mb - 62f
4:40am 4 7 mph 1015.8mb - 62f
4:30am 7 9 mph 1015.7mb - 62f
4:20am 4 7 mph 1015.8mb - 62f
4:10am 7 9 mph 1015.8mb - 62f
4:00am 7 9 mph 1015.8mb 77f 62f
3:50am 4 7 mph 1015.7mb - 62f
3:40am 4 7 mph 1015.7mb - 63f
3:30am 4
mph
1015.7mb - 63f
3:20am 4 7 mph 1015.7mb - 63f
3:10am 4 7 mph 1015.8mb - 64f
3:00am 4 7 mph 1015.8mb 77f 64f
2:50am 4
mph
1015.7mb - 64f
2:40am 4 7 mph 1015.6mb - 64f
2:30am 4 7 mph 1015.6mb - 63f
2:20am 4
mph
1015.6mb - 63f
2:10am 4 7 mph 1015.5mb - 63f
2:00am 7
mph
1015.4mb 77f 62f
1:50am 7
mph
1015.5mb - 63f
1:40am 4 7 mph 1015.5mb - 63f
1:30am 4 7 mph 1015.4mb - 63f
1:20am 4 7 mph 1015.3mb - 63f
1:10am 4 7 mph 1015.2mb - 63f
1:00am 4
mph
1015.2mb 77f 64f
12:50am 4
mph
1015.1mb - 64f
12:40am 4
mph
1015.1mb - 64f
12:30am 2 4 mph 1015mb - 65f
12:20am 2 4 mph 1015mb - 65f
12:10am 4
mph
1014.8mb - 65f
12:00am 4
mph
1014.8mb 77f 66f
Tue 09/27 11:50pm 2 4 mph 1014.7mb - 67f
11:40pm 2 4 mph 1014.7mb - 67f
11:30pm 2 4 mph 1014.8mb - 68f
11:20pm 2 4 mph 1014.7mb - 68f
11:10pm 2 4 mph 1014.7mb - 68f
11:00pm 2 7 mph 1014.8mb 77f 68f
10:50pm 4 7 mph 1014.7mb - 69f
10:40pm 7 9 mph 1014.8mb - 69f
10:30pm 9 11 mph 1014.7mb - 69f
10:20pm 7 9 mph 1014.5mb - 69f
10:10pm 7 9 mph 1014.4mb - 69f
10:00pm 7 9 mph 1014.3mb 77f 69f
9:50pm 7 9 mph 1014.3mb - 69f
9:40pm 9
mph
1014.2mb - 69f
9:30pm 9 11 mph 1014.2mb - 69f
9:20pm 11 13 mph 1014.1mb - 70f
9:10pm 9 13 mph 1014mb - 70f
9:00pm 4 7 mph 1013.9mb 77f 70f
8:50pm 4 7 mph 1013.9mb - 70f
8:40pm 4 7 mph 1013.8mb - 70f
8:30pm 7 11 mph 1013.7mb - 71f
8:20pm 9 13 mph 1013.8mb - 71f
8:10pm 11 13 mph 1013.6mb - 71f
8:00pm 11
mph
1013.5mb 77f 71f
7:50pm 9 13 mph 1013.4mb - 71f
7:40pm 9 11 mph 1013.3mb - 72f
7:30pm 7 9 mph 1013.2mb - 72f
7:20pm 7 9 mph 1013.3mb - 72f
7:10pm 7 11 mph 1013.2mb - 72f
7:00pm 7 9 mph 1013.1mb 78f 72f
6:50pm 7 9 mph 1013mb - 72f
6:40pm 9 11 mph 1012.8mb - 72f
6:30pm 9 11 mph 1012.8mb - 72f
6:20pm 9 11 mph 1012.8mb - 73f
6:10pm 9 13 mph 1012.8mb - 73f
6:00pm 9 11 mph 1012.7mb 78f 73f
5:50pm 9 11 mph 1012.7mb - 73f
5:40pm 7 9 mph 1012.7mb - 73f
5:30pm 7 11 mph 1012.7mb - 73f
5:20pm 7 11 mph 1012.7mb - 73f
5:10pm 7 9 mph 1012.6mb - 73f
5:00pm 7 9 mph 1012.7mb 78f 73f
4:50pm 7 11 mph 1012.8mb - 73f
4:40pm 7 9 mph 1012.8mb - 72f
4:30pm 9 11 mph 1012.8mb - 72f
4:20pm 7 11 mph 1012.8mb - 72f
4:10pm 7 9 mph 1012.8mb - 72f
4:00pm 7 9 mph 1012.9mb 78f 71f
3:50pm 7 9 mph 1012.9mb - 71f
3:40pm 7 9 mph 1012.9mb - 71f
3:30pm 7 9 mph 1013mb - 71f
3:20pm 7 9 mph 1013.1mb - 71f
3:10pm 7 9 mph 1013.1mb - 71f
3:00pm 7 9 mph 1013.2mb 78f 71f
2:50pm 7 9 mph 1013.3mb - 71f
2:40pm 7 9 mph 1013.4mb - 71f
2:30pm 7 9 mph 1013.5mb - 71f
2:20pm 7 9 mph 1013.7mb - 71f
2:10pm 7 9 mph 1013.8mb - 71f
2:00pm 4 9 mph 1013.9mb 78f 71f
1:50pm 7
mph
1014mb - 71f
1:40pm 7 9 mph 1014.2mb - 70f
1:30pm 4 7 mph 1014.3mb - 70f
1:20pm 7 9 mph 1014.4mb - 70f
1:10pm 9 11 mph 1014.5mb - 70f
1:00pm 7 11 mph 1014.4mb 78f 70f
12:50pm 2 9 mph 1014.4mb - 71f
12:40pm  -  2 mph 1014.5mb - 71f
12:30pm 2 4 mph 1014.6mb - 70f
12:20pm 2 4 mph 1014.8mb - 69f
12:10pm 4 7 mph 1015mb - 69f
12:00pm 4 7 mph 1015mb 78f 69f
11:50am 4 7 mph 1015.1mb - 69f
11:40am 7 9 mph 1015.3mb - 68f
11:30am 7 9 mph 1015.3mb - 69f
11:20am 4 9 mph 1015.5mb - 68f
11:10am 4 9 mph 1015.6mb - 68f
11:00am 7 9 mph 1015.6mb 77f 68f
10:50am 7 9 mph 1015.6mb - 68f
10:40am 4 9 mph 1015.7mb - 67f
10:30am 7 9 mph 1015.6mb - 67f
10:20am 4 9 mph 1015.6mb - 67f
10:10am 7 13 mph 1015.5mb - 67f
10:00am 4 7 mph 1015.4mb 77f 67f
9:50am 7 9 mph 1015.4mb - 67f
9:40am 4 13 mph 1015.4mb - 67f
9:30am 4 7 mph 1015.3mb - 67f
9:20am 4 7 mph 1015.2mb - 67f
9:10am 7 9 mph 1015.1mb - 67f
9:00am 7 9 mph 1015.1mb 76f 67f
8:50am 7 11 mph 1015mb - 67f
8:40am 7 13 mph 1014.9mb - 67f
8:30am 4 11 mph 1014.8mb - 67f
8:20am 2 4 mph 1014.6mb - 67f
8:10am 4 7 mph 1014.5mb - 67f
8:00am 4 7 mph 1014.3mb 76f 67f
7:50am 4 7 mph 1014.2mb - 67f
7:40am 4 7 mph 1014.2mb - 67f
7:30am 4 7 mph 1014.3mb - 67f
7:20am 7
mph
1014.3mb - 67f
7:10am 7 9 mph 1014.1mb - 67f
7:00am 7 9 mph 1013.9mb 77f 67f
6:50am 7 11 mph 1013.9mb - 67f
6:40am 7 9 mph 1013.9mb - 67f
6:30am 7
mph
1014mb - 67f
6:20am 4 7 mph 1014mb - 67f
6:10am 4 7 mph 1014mb - 66f
6:00am 4 9 mph 1014mb 76f 66f
5:50am 4 7 mph 1014mb - 66f
5:40am 7 9 mph 1014mb - 66f
5:30am 7 9 mph 1013.8mb - 66f
5:20am 7 9 mph 1013.7mb - 66f
5:10am 4 7 mph 1013.7mb - 66f
5:00am 7 9 mph 1013.7mb 76f 66f
4:50am 4 9 mph 1013.8mb - 66f
4:40am 7 11 mph 1013.9mb - 66f
4:30am 7 11 mph 1013.9mb - 66f
4:20am 9 11 mph 1013.9mb - 66f
4:10am 9 11 mph 1013.9mb - 67f
4:00am 11 13 mph 1013.8mb 77f 67f
3:50am 11 13 mph 1013.9mb - 67f
3:40am 9 11 mph 1013.8mb - 67f
3:30am 9 11 mph 1013.9mb - 67f
3:20am 9 11 mph 1014mb - 67f
3:10am 11 13 mph 1014.1mb - 67f
3:00am 11 16 mph 1014.1mb 77f 68f
2:50am 11 13 mph 1014.1mb - 69f
2:40am 9 13 mph 1014.1mb - 69f
2:30am 9 13 mph 1014.1mb - 69f
2:20am 11 16 mph 1014.2mb - 70f
2:10am 11 13 mph 1014.2mb - 70f
2:00am 11 16 mph 1014.2mb 77f 70f
1:50am 7 9 mph 1014.3mb - 69f
1:40am 7 9 mph 1014.3mb - 69f
1:30am 9 11 mph 1014.3mb - 69f
1:20am 11 13 mph 1014.4mb - 69f
1:10am 11 13 mph 1014.5mb - 69f
1:00am 11 13 mph 1014.5mb 77f 69f
12:50am 13 16 mph 1014.6mb - 69f
12:40am 13 16 mph 1014.7mb - 69f
12:30am 13 16 mph 1014.9mb - 69f
12:20am 13 18 mph 1015.1mb - 69f
12:10am 16 18 mph 1015.3mb - 70f
12:00am 16 20 mph 1015.4mb 77f 70f
Mon 09/26 11:50pm 16 18 mph 1015.5mb - 70f
11:40pm 16 18 mph 1015.5mb - 69f
11:30pm 16 20 mph 1015.4mb - 70f
11:20pm 16 20 mph 1015.4mb - 70f
11:10pm 18 20 mph 1015.2mb - 70f
11:00pm 16 20 mph 1015.2mb 77f 70f
10:50pm 16 20 mph 1015.3mb - 70f
10:40pm 18 22 mph 1015.4mb - 70f
10:30pm 18 22 mph 1015.6mb - 70f
10:20pm 18 22 mph 1015.6mb - 70f
10:10pm 18 22 mph 1015.9mb - 71f
10:00pm 18 20 mph 1016.3mb 77f 71f
9:50pm 16 20 mph 1016.5mb - 71f
9:40pm 16 18 mph 1016.9mb - 71f
9:30pm 18 20 mph 1016.9mb - 71f
9:20pm 18 20 mph 1017.1mb - 71f
9:10pm 18 22 mph 1017.2mb - 71f
9:00pm 16 20 mph 1017.4mb 77f 71f
8:50pm 16 18 mph 1017.3mb - 71f
8:40pm 16 18 mph 1017.4mb - 71f
8:30pm 13 16 mph 1017.3mb - 71f
8:20pm 13 16 mph 1017.3mb - 71f
8:10pm 13 16 mph 1017.5mb - 71f
8:00pm 13 16 mph 1017.5mb 77f 71f
7:50pm 13 16 mph 1017.3mb - 71f
7:40pm 13 16 mph 1017.5mb - 71f
7:30pm 11 16 mph 1017.7mb - 71f
7:20pm 11 13 mph 1017.7mb - 70f
7:10pm 13 16 mph 1017.7mb - 70f
7:00pm 11 13 mph 1017.6mb 77f 70f
6:50pm 11 13 mph 1017.5mb - 70f
6:40pm 11 13 mph 1017.4mb - 70f
6:30pm 11 13 mph 1017.4mb - 70f
6:20pm 11 16 mph 1017.3mb - 70f
6:10pm 11 16 mph 1017.2mb - 70f
6:00pm 13 16 mph 1017.1mb 77f 70f
5:50pm 11 16 mph 1017.3mb - 70f
5:40pm 11 13 mph 1017.4mb - 70f
5:30pm 11 16 mph 1017.4mb - 70f
5:20pm 13 16 mph 1017.4mb - 70f
5:10pm 13 18 mph 1017.4mb - 70f
5:00pm 13 16 mph 1017.5mb 77f 70f
4:50pm 13 16 mph 1017.6mb - 70f
4:40pm 11 13 mph 1017.7mb - 70f
4:30pm 11 16 mph 1017.8mb - 70f
4:20pm 11 13 mph 1017.8mb - 70f
4:10pm 11 16 mph 1017.9mb - 70f
4:00pm 11 13 mph 1018.1mb 78f 70f
3:50pm 11 13 mph 1018.4mb - 70f
3:40pm 11 13 mph 1018.5mb - 70f
3:30pm 11 13 mph 1018.6mb - 70f
3:20pm 13 16 mph 1018.7mb - 70f
3:10pm 13 16 mph 1018.9mb - 70f
3:00pm 13 16 mph 1018.9mb 78f 70f
2:50pm 13 16 mph 1019.1mb - 70f
2:40pm 13 16 mph 1019.2mb - 70f
2:30pm 13 16 mph 1019.3mb - 70f
2:20pm 13 18 mph 1019.5mb - 70f
2:10pm 13 16 mph 1019.7mb - 70f
2:00pm 13 16 mph 1019.8mb 78f 69f
1:50pm 13 16 mph 1019.9mb - 69f
1:40pm 13 16 mph 1020mb - 69f
1:30pm 16 18 mph 1020.2mb - 69f
1:20pm 13 18 mph 1020.4mb - 69f
1:10pm 16 18 mph 1020.6mb - 69f
1:00pm 16 20 mph 1020.7mb 78f 69f
12:50pm 16 18 mph 1020.7mb - 69f
12:40pm 16 18 mph 1020.8mb - 69f
12:30pm 16 20 mph 1020.9mb - 69f
12:20pm 16 20 mph 1021mb - 69f
12:10pm 16 18 mph 1021.1mb - 68f
12:00pm 16 18 mph 1021.2mb 78f 68f
11:50am 16 20 mph 1021.2mb - 68f
11:40am 16 18 mph 1021.3mb - 68f
11:30am 16 20 mph 1021.4mb - 67f
11:20am 16 18 mph 1021.4mb - 67f
11:10am 13 18 mph 1021.4mb - 66f
11:00am 13 18 mph 1021.5mb 78f 66f
10:50am 13 18 mph 1021.6mb - 66f
10:40am 9 16 mph 1021.6mb - 65f
10:30am 9 11 mph 1021.5mb - 65f
10:20am 9 11 mph 1021.5mb - 65f
10:10am 9 11 mph 1021.5mb - 64f
10:00am 11 13 mph 1021.6mb 78f 64f
9:50am 11
mph
1021.5mb - 64f
9:40am 7 11 mph 1021.5mb - 63f
9:30am 7 9 mph 1021.5mb - 62f
9:20am 4 7 mph 1021.6mb - 62f
9:10am 4 9 mph 1021.6mb - 62f
9:00am 7 9 mph 1021.6mb 78f 61f
8:50am 4 9 mph 1021.5mb - 61f
8:40am 4 7 mph 1021.6mb - 60f
8:30am 4 9 mph 1021.5mb - 60f
8:20am 7 9 mph 1021.5mb - 60f
8:10am 7
mph
1021.5mb - 59f
8:00am 7 9 mph 1021.6mb 78f 59f
7:50am 4 7 mph 1021.7mb - 58f
7:40am 4 7 mph 1021.7mb - 58f
7:30am 4
mph
1021.8mb - 57f
7:20am 4 7 mph 1021.7mb - 57f
7:10am 4
mph
1021.7mb - 57f
7:00am 4
mph
1021.6mb 78f 57f
6:50am 4 7 mph 1021.6mb - 57f
6:40am 4 7 mph 1021.6mb - 57f
6:30am 4
mph
1021.4mb - 57f
6:20am 4 7 mph 1021.2mb - 57f
6:10am 4 7 mph 1021.3mb - 57f
6:00am 4 7 mph 1021.4mb 77f 57f
5:50am 4
mph
1021.4mb - 57f
5:40am 4
mph
1021.5mb - 57f
5:30am 4 7 mph 1021.5mb - 57f
5:20am 4 7 mph 1021.4mb - 57f
5:10am 7
mph
1021.4mb - 58f
5:00am 4 7 mph 1021.5mb 78f 58f
4:50am 7
mph
1021.5mb - 59f
4:40am 7
mph
1021.4mb - 59f
4:30am 4 7 mph 1021.4mb - 59f
4:20am 4
mph
1021.4mb - 59f
4:10am 2 4 mph 1021.3mb - 59f
4:00am 4 7 mph 1021.3mb 78f 60f
3:50am 7 9 mph 1021.4mb - 60f
3:40am 7 9 mph 1021.5mb - 60f
3:30am 4 7 mph 1021.6mb - 60f
3:20am 4 7 mph 1021.6mb - 61f
3:10am 7 9 mph 1021.7mb - 61f
3:00am 7 9 mph 1021.8mb 78f 61f
2:50am 4 7 mph 1021.6mb - 61f
2:40am 4 7 mph 1021.8mb - 61f
2:30am 4 7 mph 1021.8mb - 61f
2:20am 4 7 mph 1021.9mb - 61f
2:10am 7
mph
1021.9mb - 61f
2:00am 7
mph
1021.9mb 79f 61f
1:50am 4 7 mph 1022mb - 60f
1:40am 4 7 mph 1022mb - 61f
1:30am 4 7 mph 1022.1mb - 61f
1:20am 4 7 mph 1022.2mb - 60f
1:10am 4 7 mph 1022.2mb - 60f
1:00am 7
mph
1022.2mb 79f 61f
12:50am 4 7 mph 1022.2mb - 60f
12:40am 4 7 mph 1022.4mb - 60f
12:30am 4 7 mph 1022.4mb - 60f
12:20am 4
mph
1022.3mb - 60f
12:10am 2 4 mph 1022.3mb - 61f
12:00am 4
mph
1022.2mb 79f 61f
Sun 09/25 11:50pm 4
mph
1022.2mb - 61f
11:40pm 4 7 mph 1022.3mb - 61f
11:30pm 4 7 mph 1022.3mb - 62f
11:20pm 4 7 mph 1022.4mb - 62f
11:10pm 2 4 mph 1022.5mb - 62f
11:00pm 4
mph
1022.4mb 79f 63f
10:50pm 4
mph
1022.3mb - 63f
10:40pm 4
mph
1022.2mb - 63f
10:30pm 4 7 mph 1022.2mb - 63f
10:20pm 4 7 mph 1022.1mb - 64f
10:10pm 4 7 mph 1022.1mb - 64f
10:00pm 4 7 mph 1022mb 79f 64f
9:50pm 4 7 mph 1022.1mb - 65f
9:40pm 4
mph
1022mb - 65f
9:30pm 4
mph
1022mb - 66f
9:20pm 2 4 mph 1021.9mb - 66f
9:10pm 4
mph
1021.9mb - 66f
9:00pm 4
mph
1021.8mb 79f 67f
8:50pm 4 7 mph 1021.7mb - 67f
8:40pm 2 4 mph 1021.6mb - 67f
8:30pm 4
mph
1021.4mb - 67f
8:20pm 4
mph
1021.4mb - 68f
8:10pm 4 7 mph 1021.4mb - 67f
8:00pm 7
mph
1021.4mb 79f 68f
7:50pm 7 9 mph 1021.3mb - 68f
7:40pm 7 9 mph 1021.3mb - 68f
7:30pm 7 9 mph 1021.3mb - 68f
7:20pm 7 9 mph 1021.1mb - 68f
7:10pm 9 11 mph 1021.1mb - 68f
7:00pm 9 11 mph 1021.2mb 79f 69f
6:50pm 9 11 mph 1021.1mb - 70f
6:40pm 9
mph
1021mb - 70f
6:30pm 4 9 mph 1021mb - 71f
6:20pm 2 4 mph 1020.9mb - 72f
6:10pm 2 4 mph 1020.9mb - 72f
6:00pm 2 4 mph 1020.8mb 80f 71f
5:50pm 4 7 mph 1020.8mb - 71f
5:40pm 4 7 mph 1020.8mb - 71f
5:30pm 4 7 mph 1020.7mb - 71f
5:20pm 7 9 mph 1020.7mb - 71f
5:10pm 4 9 mph 1020.7mb - 71f
5:00pm 4 7 mph 1020.6mb 80f 70f
4:50pm 4 7 mph 1020.6mb - 70f
4:40pm 4 9 mph 1020.7mb - 70f
4:30pm 4 9 mph 1020.7mb - 69f
4:20pm 7 9 mph 1020.9mb - 69f
4:10pm 7 9 mph 1021mb - 69f
4:00pm 7 9 mph 1021mb 80f 69f
3:50pm 7 11 mph 1021.2mb - 69f
3:40pm 7 11 mph 1021.2mb - 69f
3:30pm 7 9 mph 1021.4mb - 69f
3:20pm 4 9 mph 1021.5mb - 69f
3:10pm 9 11 mph 1021.5mb - 68f
3:00pm 7 11 mph 1021.7mb 80f 68f
2:50pm 7 9 mph 1021.8mb - 68f
2:40pm 4 9 mph 1021.9mb - 67f
2:30pm 4 7 mph 1022mb - 67f
2:20pm 4 7 mph 1022.2mb - 67f
2:10pm 4 7 mph 1022.3mb - 67f
2:00pm 4 7 mph 1022.5mb 80f 67f
1:50pm 4 7 mph 1022.6mb - 67f
1:40pm 4 9 mph 1022.7mb - 67f
1:30pm 7 9 mph 1022.8mb - 66f
1:20pm 4 9 mph 1023mb - 66f
1:10pm 4 9 mph 1023.2mb - 66f
1:00pm 7 9 mph 1023.3mb 80f 66f
12:50pm 4 9 mph 1023.2mb - 66f
12:40pm 4 7 mph 1023.5mb - 66f
12:30pm 4 9 mph 1023.6mb - 66f
12:20pm 7 11 mph 1023.6mb - 65f
12:10pm 7 11 mph 1023.5mb - 65f
12:00pm 4 11 mph 1023.7mb 79f 65f
11:50am 7 13 mph 1023.9mb - 65f
11:40am 9 13 mph 1023.8mb - 65f
11:30am 7 13 mph 1023.9mb - 65f
11:20am 7 16 mph 1024mb - 65f
11:10am 7 11 mph 1024mb - 64f
11:00am 9 13 mph 1024mb 79f 64f
10:50am 7 11 mph 1024mb - 64f
10:40am 7 13 mph 1024.1mb - 64f
10:30am 9 16 mph 1024.1mb - 63f
10:20am 7 13 mph 1023.9mb - 63f
10:10am 9 16 mph 1023.8mb - 63f
10:00am 9 13 mph 1023.8mb 79f 62f
9:50am 9 13 mph 1023.8mb - 62f
9:40am 9 13 mph 1024mb - 62f
9:30am 7 11 mph 1024mb - 61f
9:20am 7 11 mph 1023.9mb - 60f
9:10am 7 11 mph 1023.9mb - 60f
9:00am 9 11 mph 1023.9mb 78f 60f
8:50am 9 11 mph 1023.8mb - 60f
8:40am 7 9 mph 1023.7mb - 59f
8:30am 7 13 mph 1023.7mb - 58f
8:20am 9 11 mph 1023.7mb - 58f
8:10am 9 13 mph 1023.7mb - 58f
8:00am 11 13 mph 1023.6mb 78f 58f
7:50am 11 16 mph 1023.6mb - 58f
7:40am 13 18 mph 1023.5mb - 58f
7:30am 13 18 mph 1023.4mb - 58f
7:20am 13 18 mph 1023.4mb - 58f
7:10am 13 16 mph 1023.3mb - 58f
7:00am 13 18 mph 1023.2mb 78f 58f
6:50am 13 18 mph 1023.1mb - 58f
6:40am 13 18 mph 1023mb - 58f
6:30am 13 18 mph 1023mb - 58f
6:20am 13 18 mph 1022.9mb - 58f
6:10am 13 16 mph 1022.8mb - 58f
6:00am 11 16 mph 1022.8mb 78f 58f
5:50am 11 16 mph 1022.8mb - 58f
5:40am 11 16 mph 1022.6mb - 59f
5:30am 11 16 mph 1022.5mb - 59f
5:20am 11 16 mph 1022.4mb - 59f
5:10am 11 18 mph 1022.3mb - 59f
5:00am 13 16 mph 1022.1mb 79f 59f
4:50am 11 16 mph 1022.1mb - 59f
4:40am 11 13 mph 1022mb - 59f
4:30am 11 16 mph 1022mb - 59f
4:20am 9 11 mph 1022mb - 60f
4:10am 9 13 mph 1022mb - 60f
4:00am 9 11 mph 1022mb 78f 60f
3:50am 7 9 mph 1022mb - 60f
3:40am 7 9 mph 1021.9mb - 60f
3:30am 7 9 mph 1021.9mb - 60f
3:20am 9 11 mph 1022mb - 61f
3:10am 9 11 mph 1022mb - 61f
3:00am 9 11 mph 1022mb 79f 61f
2:50am 9 11 mph 1022mb - 61f
2:40am 9 11 mph 1022mb - 62f
2:30am 9 11 mph 1022mb - 62f
2:20am 9 13 mph 1022mb - 62f
2:10am 11 13 mph 1022mb - 62f
2:00am 9 11 mph 1021.9mb 79f 63f
1:50am 9 16 mph 1021.7mb - 63f
1:40am 9 11 mph 1021.6mb - 63f
1:30am 9 11 mph 1021.4mb - 63f
1:20am 7 11 mph 1021.5mb - 63f
1:10am 7 11 mph 1021.5mb - 64f
1:00am 7 9 mph 1021.5mb 80f 64f
12:50am 7 9 mph 1021.5mb - 63f
12:40am 7 9 mph 1021.6mb - 63f
12:30am 7 9 mph 1021.5mb - 63f
12:20am 4 7 mph 1021.5mb - 64f
12:10am 4 7 mph 1021.5mb - 64f
12:00am 2 7 mph 1021.5mb 80f 64f
Sat 09/24 11:50pm 4
mph
1021.4mb - 64f
11:40pm 4 7 mph 1021.5mb - 64f
11:30pm 4 7 mph 1021.4mb - 64f
11:20pm 4 7 mph 1021.4mb - 65f
11:10pm 4 7 mph 1021.5mb - 65f
11:00pm 7 9 mph 1021.6mb 80f 65f
10:50pm 7 9 mph 1021.6mb - 66f
10:40pm 7 9 mph 1021.6mb - 66f
10:30pm 7 9 mph 1021.5mb - 66f
10:20pm 7 9 mph 1021.4mb - 66f
10:10pm 7 9 mph 1021.3mb - 66f
10:00pm 9
mph
1021.2mb 80f 67f
9:50pm 7 9 mph 1021mb - 67f
9:40pm 7 9 mph 1020.9mb - 66f
9:30pm 7 9 mph 1020.8mb - 66f
9:20pm 7
mph
1020.8mb - 67f
9:10pm 7
mph
1020.6mb - 67f
9:00pm 7
mph
1020.5mb 80f 68f
8:50pm 4 7 mph 1020.4mb - 68f
8:40pm 4
mph
1020.3mb - 68f
8:30pm 4
mph
1020.2mb - 69f
8:20pm 4 7 mph 1020.1mb - 69f
8:10pm 2 4 mph 1020mb - 70f
8:00pm 4
mph
1019.9mb 80f 70f
7:50pm 2 4 mph 1019.9mb - 70f
7:40pm 2 4 mph 1019.8mb - 69f
7:30pm  -  2 mph 1019.7mb - 69f
7:20pm 2
mph
1019.6mb - 70f
7:10pm 2 4 mph 1019.6mb - 70f
7:00pm 4 7 mph 1019.6mb 80f 70f
6:50pm 4 7 mph 1019.6mb - 70f
6:40pm 4 9 mph 1019.5mb - 71f
6:30pm 4 7 mph 1019.5mb - 71f
6:20pm 7 9 mph 1019.5mb - 71f